Time;durP1;ratioP1;P1;durP2;ratioP2;P2;SDS_P1;SDS_P2;PMS_P1;PMS_P2;Temp;Humidity;BMP_temperature;BMP_pressure;BME280_temperature;BME280_humidity;BME280_pressure;Samples;Min_cycle;Max_cycle;Signal;HPM_P1;HPM_P2
2023/12/18 00:01:40;;;;;;;18.42;4.50;;;;;;;;;;6174023;22;20022;-88
2023/12/18 00:04:24;;;;;;;20.20;4.85;;;;;;;;;;6284250;22;20034;-89
2023/12/18 00:07:11;;;;;;;19.63;4.32;;;;;;;;;;6284064;22;20025;-89
2023/12/18 00:09:55;;;;;;;16.23;4.40;;;;;;;;;;6284829;22;20095;-90
2023/12/18 00:12:39;;;;;;;13.82;4.22;;;;;;;;;;6283903;22;20041;-88
2023/12/18 00:15:23;;;;;;;10.90;4.10;;;;;;;;;;6283689;22;20511;-88
2023/12/18 00:18:07;;;;;;;22.48;4.30;;;;;;;;;;6284539;22;20022;-88
2023/12/18 00:20:52;;;;;;;12.98;5.05;;;;;;;;;;6283945;22;20022;-89
2023/12/18 00:23:36;;;;;;;19.90;4.10;;;;;;;;;;6283841;22;20017;-87
2023/12/18 00:26:20;;;;;;;16.67;4.18;;;;;;;;;;6283693;22;20340;-89
2023/12/18 00:29:04;;;;;;;12.48;3.95;;;;;;;;;;6283750;22;20018;-87
2023/12/18 00:31:48;;;;;;;;;;;;;;;;;;6306979;22;20021;-87
2023/12/18 00:34:32;;;;;;;8.65;3.85;;;;;;;;;;6283649;22;20441;-87
2023/12/18 00:37:18;;;;;;;;;;;;;;;;;;6284284;22;20377;-89
2023/12/18 00:40:02;;;;;;;16.13;3.67;;;;;;;;;;6284982;22;20348;-88
2023/12/18 00:42:52;;;;;;;10.00;3.80;;;;;;;;;;6284280;22;20022;-87
2023/12/18 00:45:36;;;;;;;39.28;4.90;;;;;;;;;;6284126;22;20018;-89
2023/12/18 00:48:21;;;;;;;17.83;4.30;;;;;;;;;;6284364;22;20017;-87
2023/12/18 00:51:05;;;;;;;11.40;3.88;;;;;;;;;;6284454;22;20106;-87
2023/12/18 00:53:49;;;;;;;14.50;3.72;;;;;;;;;;6307871;22;20104;-88
2023/12/18 00:56:33;;;;;;;12.52;3.85;;;;;;;;;;6283997;22;20026;-87
2023/12/18 00:59:17;;;;;;;14.77;4.05;;;;;;;;;;6284439;22;20021;-91
2023/12/18 01:02:02;;;;;;;10.05;4.50;;;;;;;;;;6236924;22;20493;-87
2023/12/18 01:04:46;;;;;;;24.65;4.25;;;;;;;;;;6149675;23;20021;-89
2023/12/18 01:07:37;;;;;;;17.58;4.40;;;;;;;;;;6149167;23;20098;-88
2023/12/18 01:10:21;;;;;;;13.40;3.65;;;;;;;;;;6149508;23;20020;-88
2023/12/18 01:13:05;;;;;;;14.02;5.22;;;;;;;;;;6148583;23;20021;-87
2023/12/18 01:15:50;;;;;;;15.43;3.65;;;;;;;;;;6150069;23;20021;-85
2023/12/18 01:18:34;;;;;;;12.35;3.83;;;;;;;;;;6149219;23;20074;-85
2023/12/18 01:21:18;;;;;;;15.07;4.03;;;;;;;;;;6149333;23;20032;-86
2023/12/18 01:24:02;;;;;;;17.08;4.20;;;;;;;;;;6149310;23;20036;-87
2023/12/18 01:26:46;;;;;;;24.25;5.05;;;;;;;;;;6149063;23;20052;-89
2023/12/18 01:29:30;;;;;;;16.38;4.03;;;;;;;;;;6149171;23;20067;-86
2023/12/18 01:32:14;;;;;;;11.00;3.83;;;;;;;;;;6149023;23;20013;-89
2023/12/18 01:34:58;;;;;;;12.70;4.88;;;;;;;;;;6149223;23;20023;-86
2023/12/18 01:37:42;;;;;;;11.43;3.75;;;;;;;;;;6150087;23;20039;-88
2023/12/18 01:40:30;;;;;;;12.55;4.35;;;;;;;;;;6149354;23;20084;-88
2023/12/18 01:43:24;;;;;;;22.02;5.85;;;;;;;;;;6149418;23;20021;-87
2023/12/18 01:46:09;;;;;;;14.40;4.38;;;;;;;;;;6148810;23;20023;-87
2023/12/18 01:48:54;;;;;;;14.90;4.35;;;;;;;;;;6149214;23;20074;-86
2023/12/18 01:51:38;;;;;;;16.20;4.35;;;;;;;;;;6149155;23;20454;-89
2023/12/18 01:54:22;;;;;;;15.65;3.70;;;;;;;;;;6148871;23;20027;-88
2023/12/18 01:57:06;;;;;;;19.67;4.63;;;;;;;;;;6150262;23;20470;-86
2023/12/18 01:59:50;;;;;;;14.75;4.40;;;;;;;;;;6149398;23;20020;-88
2023/12/18 02:02:35;;;;;;;12.68;3.72;;;;;;;;;;6149140;23;20028;-87
2023/12/18 02:05:19;;;;;;;14.85;4.75;;;;;;;;;;6149129;23;20028;-87
2023/12/18 02:08:03;;;;;;;15.98;4.22;;;;;;;;;;6148745;23;20024;-88
2023/12/18 02:10:47;;;;;;;16.10;4.15;;;;;;;;;;6149381;23;20088;-86
2023/12/18 02:13:31;;;;;;;18.00;4.10;;;;;;;;;;6149198;23;20068;-86
2023/12/18 02:16:15;;;;;;;11.57;4.20;;;;;;;;;;6150198;23;20087;-87
2023/12/18 02:18:59;;;;;;;16.02;4.22;;;;;;;;;;6149628;23;20039;-86
2023/12/18 02:21:43;;;;;;;17.77;4.63;;;;;;;;;;6149006;23;20052;-87
2023/12/18 02:24:29;;;;;;;18.25;4.72;;;;;;;;;;6148797;23;20075;-88
2023/12/18 02:27:14;;;;;;;14.75;4.55;;;;;;;;;;6149280;23;20023;-86
2023/12/18 02:29:57;;;;;;;13.02;4.68;;;;;;;;;;6149050;23;20335;-87
2023/12/18 02:32:42;;;;;;;14.32;4.97;;;;;;;;;;6150079;23;20075;-89
2023/12/18 02:35:25;;;;;;;16.85;4.82;;;;;;;;;;6149418;23;20336;-87
2023/12/18 02:38:10;;;;;;;15.70;4.32;;;;;;;;;;6149067;23;20344;-87
2023/12/18 02:40:54;;;;;;;13.15;4.32;;;;;;;;;;6149058;23;20115;-86
2023/12/18 02:43:38;;;;;;;19.48;4.22;;;;;;;;;;6148872;23;20101;-88
2023/12/18 02:46:22;;;;;;;16.55;4.03;;;;;;;;;;6148625;23;20153;-87
2023/12/18 02:49:06;;;;;;;16.75;4.03;;;;;;;;;;6149050;23;20023;-88
2023/12/18 02:51:51;;;;;;;16.40;5.50;;;;;;;;;;6148799;23;20093;-86
2023/12/18 02:54:35;;;;;;;17.25;4.47;;;;;;;;;;6148696;23;20047;-86
2023/12/18 02:57:19;;;;;;;17.48;4.10;;;;;;;;;;6148374;23;20024;-89
2023/12/18 03:00:03;;;;;;;17.77;4.63;;;;;;;;;;6148656;23;20052;-90
2023/12/18 03:02:47;;;;;;;13.93;4.05;;;;;;;;;;6148115;23;20029;-88
2023/12/18 03:05:34;;;;;;;15.75;4.10;;;;;;;;;;6148101;23;20112;-88
2023/12/18 03:08:18;;;;;;;15.35;4.70;;;;;;;;;;6148537;23;20024;-89
2023/12/18 03:11:02;;;;;;;16.20;4.35;;;;;;;;;;6148556;23;20063;-87
2023/12/18 03:13:46;;;;;;;14.85;5.05;;;;;;;;;;6148266;23;20142;-86
2023/12/18 03:16:30;;;;;;;16.35;4.10;;;;;;;;;;6147777;23;20048;-85
2023/12/18 03:19:16;;;;;;;21.98;4.30;;;;;;;;;;6148412;23;20017;-88
2023/12/18 03:22:00;;;;;;;15.00;4.70;;;;;;;;;;6149289;23;20352;-86
2023/12/18 03:24:44;;;;;;;14.80;4.03;;;;;;;;;;6149543;23;20072;-86
2023/12/18 03:27:28;;;;;;;21.38;5.30;;;;;;;;;;6149576;23;20075;-86
2023/12/18 03:30:12;;;;;;;14.65;4.25;;;;;;;;;;6149646;23;20068;-86
2023/12/18 03:32:56;;;;;;;10.10;3.80;;;;;;;;;;6149478;23;20340;-87
2023/12/18 03:35:40;;;;;;;21.88;4.13;;;;;;;;;;6149317;23;20024;-86
2023/12/18 03:38:24;;;;;;;13.63;3.97;;;;;;;;;;6149213;23;20021;-86
2023/12/18 03:41:08;;;;;;;20.05;4.40;;;;;;;;;;6149775;23;20520;-87
2023/12/18 03:43:52;;;;;;;17.73;4.07;;;;;;;;;;6149640;23;20071;-89
2023/12/18 03:46:36;;;;;;;18.83;4.22;;;;;;;;;;6149262;23;20020;-88
2023/12/18 03:49:20;;;;;;;11.70;4.22;;;;;;;;;;6149935;23;20080;-87
2023/12/18 03:52:05;;;;;;;17.02;4.18;;;;;;;;;;6149884;23;20520;-86
2023/12/18 03:54:48;;;;;;;9.40;3.67;;;;;;;;;;6149230;23;20016;-88
2023/12/18 03:57:32;;;;;;;17.50;4.32;;;;;;;;;;6149684;23;20024;-90
2023/12/18 04:00:16;;;;;;;;;;;;;;;;;;6150197;23;20176;-86
2023/12/18 04:03:02;;;;;;;16.67;4.10;;;;;;;;;;6244994;22;19917;-87
2023/12/18 04:05:46;;;;;;;17.27;4.00;;;;;;;;;;6283955;22;20026;-87
2023/12/18 04:08:31;;;;;;;12.00;3.58;;;;;;;;;;6307348;22;20018;-86
2023/12/18 04:11:15;;;;;;;19.52;4.95;;;;;;;;;;6284914;22;20011;-87
2023/12/18 04:13:59;;;;;;;13.15;4.07;;;;;;;;;;6284476;22;20014;-86
2023/12/18 04:16:43;;;;;;;11.50;4.03;;;;;;;;;;6307880;22;20018;-89
2023/12/18 04:19:27;;;;;;;19.17;3.65;;;;;;;;;;6284512;22;20463;-89
2023/12/18 04:22:11;;;;;;;15.38;3.95;;;;;;;;;;6284563;22;20091;-89
2023/12/18 04:24:55;;;;;;;15.40;4.28;;;;;;;;;;6307422;22;20399;-88
2023/12/18 04:27:39;;;;;;;18.63;4.50;;;;;;;;;;6284486;22;20022;-86
2023/12/18 04:30:23;;;;;;;16.75;4.53;;;;;;;;;;6284200;22;20034;-89
2023/12/18 04:33:06;;;;;;;12.27;3.70;;;;;;;;;;6284173;22;20018;-90
2023/12/18 04:35:50;;;;;;;12.15;3.70;;;;;;;;;;6284435;22;20088;-87
2023/12/18 04:38:34;;;;;;;14.15;3.33;;;;;;;;;;6284259;22;20101;-90
2023/12/18 04:41:21;;;;;;;12.45;3.10;;;;;;;;;;6284477;22;20523;-88
2023/12/18 04:44:05;;;;;;;16.55;4.05;;;;;;;;;;6284328;22;20065;-87
2023/12/18 04:46:49;;;;;;;11.05;3.30;;;;;;;;;;6283817;22;20099;-88
2023/12/18 04:49:33;;;;;;;10.18;3.35;;;;;;;;;;6283929;22;20061;-88
2023/12/18 04:52:17;;;;;;;9.30;2.70;;;;;;;;;;6284302;22;20015;-88
2023/12/18 04:55:01;;;;;;;6.85;2.92;;;;;;;;;;6283622;22;20449;-88
2023/12/18 04:57:45;;;;;;;14.85;3.60;;;;;;;;;;6283935;22;20018;-86
2023/12/18 05:00:29;;;;;;;12.15;3.10;;;;;;;;;;6283748;22;20022;-87
2023/12/18 05:03:13;;;;;;;6.00;3.15;;;;;;;;;;6188294;22;20056;-89
2023/12/18 05:05:57;;;;;;;12.93;3.47;;;;;;;;;;6147693;23;20031;-88
2023/12/18 05:08:41;;;;;;;8.40;2.50;;;;;;;;;;6149561;23;20520;-89
2023/12/18 05:11:25;;;;;;;9.20;2.60;;;;;;;;;;6149678;23;20093;-86
2023/12/18 05:14:09;;;;;;;8.88;2.88;;;;;;;;;;6149725;23;20020;-88
2023/12/18 05:16:53;;;;;;;6.53;2.50;;;;;;;;;;6149733;23;20454;-90
2023/12/18 05:19:37;;;;;;;10.38;2.40;;;;;;;;;;6149942;23;20024;-89
2023/12/18 05:22:21;;;;;;;7.22;2.50;;;;;;;;;;6149296;23;20039;-87
2023/12/18 05:25:06;;;;;;;7.28;2.40;;;;;;;;;;6149414;23;20024;-88
2023/12/18 05:27:50;;;;;;;4.20;2.65;;;;;;;;;;6149723;23;20047;-87
2023/12/18 05:30:36;;;;;;;11.63;2.70;;;;;;;;;;6149884;23;20451;-88
2023/12/18 05:33:20;;;;;;;7.38;2.22;;;;;;;;;;6149180;23;20017;-88
2023/12/18 05:36:04;;;;;;;5.78;2.45;;;;;;;;;;6149199;23;20024;-88
2023/12/18 05:38:48;;;;;;;8.20;2.00;;;;;;;;;;6149680;23;20047;-88
2023/12/18 05:41:34;;;;;;;4.82;1.92;;;;;;;;;;6150222;23;20056;-89
2023/12/18 05:44:18;;;;;;;5.43;2.00;;;;;;;;;;6153512;23;20020;-89
2023/12/18 05:47:05;;;;;;;4.13;2.17;;;;;;;;;;6154079;23;20020;-89
2023/12/18 05:49:56;;;;;;;4.65;2.53;;;;;;;;;;6153682;23;20063;-90
2023/12/18 05:52:40;;;;;;;3.17;1.90;;;;;;;;;;6154616;23;20400;-89
2023/12/18 05:55:24;;;;;;;2.88;2.10;;;;;;;;;;6154802;23;20005;-91
2023/12/18 05:58:08;;;;;;;3.30;1.95;;;;;;;;;;6154012;23;20017;-89
2023/12/18 06:00:52;;;;;;;5.13;2.50;;;;;;;;;;6153326;23;20043;-90
2023/12/18 06:03:36;;;;;;;5.95;2.50;;;;;;;;;;6153596;23;20020;-90
2023/12/18 06:06:20;;;;;;;4.78;2.30;;;;;;;;;;6154650;23;20044;-91
2023/12/18 06:09:04;;;;;;;3.95;2.35;;;;;;;;;;6154982;23;20021;-90
2023/12/18 06:11:48;;;;;;;7.15;2.50;;;;;;;;;;6154125;23;20012;-89
2023/12/18 06:14:32;;;;;;;9.70;3.00;;;;;;;;;;6153797;23;20033;-90
2023/12/18 06:17:16;;;;;;;5.75;2.47;;;;;;;;;;6153865;23;20096;-89
2023/12/18 06:20:06;;;;;;;5.78;2.97;;;;;;;;;;6156514;23;20026;-90
2023/12/18 06:26:52;;;;;;;3.35;2.75;;;;;;;;;;6166853;23;20024;-89
2023/12/18 06:29:37;;;;;;;6.82;3.28;;;;;;;;;;6159593;23;20447;-90
2023/12/18 06:32:21;;;;;;;5.72;3.10;;;;;;;;;;6153626;23;20071;-90
2023/12/18 06:35:05;;;;;;;7.82;3.83;;;;;;;;;;6154682;23;20021;-89
2023/12/18 06:37:50;;;;;;;5.72;3.10;;;;;;;;;;6155218;23;20116;-89
2023/12/18 06:40:33;;;;;;;5.68;3.20;;;;;;;;;;6153017;23;20063;-90
2023/12/18 06:43:18;;;;;;;7.20;3.15;;;;;;;;;;6153820;23;20024;-89
2023/12/18 06:46:02;;;;;;;7.22;3.17;;;;;;;;;;6156774;23;20411;-89
2023/12/18 06:48:46;;;;;;;7.22;3.58;;;;;;;;;;6155225;23;20092;-89
2023/12/18 06:51:30;;;;;;;4.20;3.75;;;;;;;;;;6155354;23;20059;-89
2023/12/18 06:54:14;;;;;;;7.75;3.70;;;;;;;;;;6156397;23;20036;-89
2023/12/18 06:56:58;;;;;;;9.25;3.60;;;;;;;;;;6159820;23;20332;-89
2023/12/18 06:59:42;;;;;;;8.50;4.05;;;;;;;;;;6158741;23;20083;-89
2023/12/18 07:02:26;;;;;;;8.57;4.88;;;;;;;;;;6158181;23;20489;-89
2023/12/18 07:05:16;;;;;;;5.55;4.22;;;;;;;;;;6158687;23;20463;-89
2023/12/18 07:08:00;;;;;;;13.15;7.22;;;;;;;;;;6156708;23;20028;-90
2023/12/18 07:10:55;;;;;;;4.88;3.55;;;;;;;;;;6157272;23;20039;-89
2023/12/18 07:13:39;;;;;;;5.57;2.72;;;;;;;;;;6160071;23;20052;-90
2023/12/18 07:19:57;;;;;;;3.72;2.63;;;;;;;;;;6153313;23;20407;-86
2023/12/18 07:22:43;;;;;;;2.50;2.30;;;;;;;;;;6152653;23;20021;-88
2023/12/18 07:25:28;;;;;;;3.08;2.75;;;;;;;;;;6154228;23;20032;-89
2023/12/18 07:28:12;;;;;;;4.05;3.22;;;;;;;;;;6154422;23;20024;-89
2023/12/18 07:30:56;;;;;;;3.00;2.80;;;;;;;;;;6154367;23;20016;-89
2023/12/18 07:33:40;;;;;;;4.13;2.47;;;;;;;;;;6153181;23;20052;-89
2023/12/18 07:36:24;;;;;;;3.60;2.20;;;;;;;;;;6154214;23;20087;-88
2023/12/18 07:39:08;;;;;;;2.58;2.38;;;;;;;;;;6154212;23;20052;-89
2023/12/18 07:41:52;;;;;;;2.42;2.15;;;;;;;;;;6157952;23;20023;-89
2023/12/18 07:44:36;;;;;;;4.05;2.30;;;;;;;;;;6160955;23;20024;-89
2023/12/18 07:47:49;;;;;;;2.47;1.92;;;;;;;;;;6158132;23;20396;-88
2023/12/18 08:05:29;;;;;;;2.60;1.80;;;;;;;;;;6150268;23;20048;-89
2023/12/18 08:08:13;;;;;;;2.03;1.88;;;;;;;;;;6212167;23;20355;-88
2023/12/18 08:10:57;;;;;;;2.63;1.83;;;;;;;;;;6123619;23;20356;-88
2023/12/18 08:13:42;;;;;;;2.85;1.80;;;;;;;;;;6209512;23;20400;-86
2023/12/18 08:16:27;;;;;;;1.95;1.80;;;;;;;;;;6208994;23;20021;-87
2023/12/18 08:19:11;;;;;;;1.70;1.60;;;;;;;;;;6209533;23;20490;-88
2023/12/18 08:21:54;;;;;;;1.73;1.63;;;;;;;;;;6209161;23;20036;-89
2023/12/18 08:24:38;;;;;;;2.30;2.10;;;;;;;;;;6122863;23;20021;-88
2023/12/18 08:27:26;;;;;;;1.73;1.60;;;;;;;;;;6211744;23;20025;-89
2023/12/18 08:30:10;;;;;;;1.60;1.50;;;;;;;;;;6213474;23;20341;-89
2023/12/18 08:32:55;;;;;;;1.42;1.40;;;;;;;;;;6210830;23;20017;-88
2023/12/18 08:35:39;;;;;;;1.52;1.42;;;;;;;;;;6208942;23;20074;-88
2023/12/18 08:38:26;;;;;;;1.60;1.50;;;;;;;;;;6209936;23;20474;-86
2023/12/18 08:41:10;;;;;;;1.42;1.33;;;;;;;;;;6209077;23;20092;-88
2023/12/18 08:44:00;;;;;;;2.95;1.50;;;;;;;;;;6208834;23;20025;-89
2023/12/18 08:46:59;;;;;;;3.38;1.60;;;;;;;;;;6209508;23;20067;-88
2023/12/18 08:49:43;;;;;;;1.65;1.55;;;;;;;;;;6209214;23;20089;-87
2023/12/18 08:52:27;;;;;;;1.50;1.40;;;;;;;;;;6209279;23;20071;-89
2023/12/18 08:55:11;;;;;;;1.55;1.45;;;;;;;;;;6210283;23;20101;-88
2023/12/18 08:58:08;;;;;;;1.60;1.50;;;;;;;;;;6208325;23;20474;-88
2023/12/18 09:00:57;;;;;;;1.73;1.60;;;;;;;;;;6209433;23;20024;-87
2023/12/18 09:03:41;;;;;;;1.77;1.60;;;;;;;;;;6122574;23;20104;-87
2023/12/18 09:06:25;;;;;;;1.92;1.70;;;;;;;;;;6206498;22;20168;-87
2023/12/18 09:09:09;;;;;;;1.63;1.52;;;;;;;;;;6150603;23;20076;-87
2023/12/18 09:11:53;;;;;;;2.40;1.50;;;;;;;;;;6150786;23;20087;-87
2023/12/18 09:14:37;;;;;;;3.47;1.63;;;;;;;;;;6150847;23;20029;-88
2023/12/18 09:17:21;;;;;;;1.60;1.50;;;;;;;;;;6150661;23;20037;-88
2023/12/18 09:20:09;;;;;;;1.60;1.50;;;;;;;;;;6151127;23;20021;-88
2023/12/18 09:22:53;;;;;;;3.08;2.78;;;;;;;;;;6151155;23;20534;-87
2023/12/18 09:25:37;;;;;;;6.55;5.10;;;;;;;;;;6150845;23;20487;-88
2023/12/18 09:28:21;;;;;;;7.15;5.38;;;;;;;;;;6151674;23;20064;-88
2023/12/18 09:31:08;;;;;;;7.68;4.47;;;;;;;;;;6152514;23;20497;-87
2023/12/18 09:33:52;;;;;;;6.28;4.10;;;;;;;;;;6151146;23;20067;-89
2023/12/18 09:36:36;;;;;;;5.13;3.90;;;;;;;;;;6151351;23;20020;-90
2023/12/18 09:39:20;;;;;;;2.85;2.65;;;;;;;;;;6151205;23;20023;-89
2023/12/18 09:42:05;;;;;;;1.88;1.77;;;;;;;;;;6151219;23;20118;-87
2023/12/18 09:44:49;;;;;;;2.17;2.03;;;;;;;;;;6151132;23;20089;-89
2023/12/18 09:47:33;;;;;;;5.07;3.38;;;;;;;;;;6151475;23;20113;-88
2023/12/18 09:50:18;;;;;;;3.42;2.22;;;;;;;;;;6151299;23;20393;-87
2023/12/18 09:53:02;;;;;;;2.40;2.20;;;;;;;;;;6151417;23;20059;-88
2023/12/18 09:55:53;;;;;;;3.08;2.30;;;;;;;;;;6151537;23;20082;-88
2023/12/18 09:58:39;;;;;;;2.20;2.10;;;;;;;;;;6150861;23;20028;-90
2023/12/18 10:01:24;;;;;;;3.33;2.42;;;;;;;;;;6151439;23;20086;-90
2023/12/18 10:04:08;;;;;;;3.45;2.17;;;;;;;;;;6151527;23;20024;-88
2023/12/18 10:06:54;;;;;;;2.40;2.20;;;;;;;;;;6150836;23;20028;-89
2023/12/18 10:09:37;;;;;;;2.40;2.20;;;;;;;;;;6151547;23;20343;-89
2023/12/18 10:12:24;;;;;;;2.58;2.00;;;;;;;;;;6152642;23;20551;-89
2023/12/18 10:15:09;;;;;;;2.40;1.77;;;;;;;;;;6151778;23;20110;-89
2023/12/18 10:17:53;;;;;;;2.55;1.95;;;;;;;;;;6151850;23;20021;-88
2023/12/18 10:20:40;;;;;;;1.92;1.83;;;;;;;;;;6151510;23;20028;-88
2023/12/18 10:23:24;;;;;;;2.22;1.90;;;;;;;;;;6151495;23;20020;-89
2023/12/18 10:26:10;;;;;;;2.85;2.65;;;;;;;;;;6151576;23;20409;-90
2023/12/18 10:28:54;;;;;;;2.97;2.70;;;;;;;;;;6151268;23;20096;-89
2023/12/18 10:31:38;;;;;;;2.92;2.15;;;;;;;;;;6151860;23;20016;-89
2023/12/18 10:34:22;;;;;;;2.17;2.08;;;;;;;;;;6152532;23;20024;-90
2023/12/18 10:37:07;;;;;;;3.08;2.15;;;;;;;;;;6151276;23;20080;-90
2023/12/18 10:39:53;;;;;;;1.73;1.63;;;;;;;;;;6151905;23;20070;-90
2023/12/18 10:42:37;;;;;;;2.22;2.03;;;;;;;;;;6153128;23;20024;-88
2023/12/18 10:45:22;;;;;;;2.15;1.95;;;;;;;;;;6152251;23;20100;-90
2023/12/18 10:48:06;;;;;;;2.67;2.47;;;;;;;;;;6152238;23;20078;-90
2023/12/18 10:50:53;;;;;;;3.03;2.72;;;;;;;;;;6151878;23;20016;-89
2023/12/18 10:53:38;;;;;;;3.13;2.78;;;;;;;;;;6151450;23;20071;-89
2023/12/18 10:56:22;;;;;;;2.92;2.70;;;;;;;;;;6151578;23;20020;-89
2023/12/18 10:59:07;;;;;;;3.53;2.80;;;;;;;;;;6151706;23;20056;-89
2023/12/18 11:01:51;;;;;;;5.40;3.90;;;;;;;;;;6151728;23;20039;-88
2023/12/18 11:04:36;;;;;;;2.80;2.60;;;;;;;;;;6151437;23;20036;-88
2023/12/18 11:07:20;;;;;;;2.95;2.70;;;;;;;;;;6150971;23;20020;-90
2023/12/18 11:10:05;;;;;;;3.10;2.80;;;;;;;;;;6151205;23;20021;-88
2023/12/18 11:12:50;;;;;;;2.70;2.50;;;;;;;;;;6151350;23;20525;-87
2023/12/18 11:15:37;;;;;;;3.05;2.63;;;;;;;;;;6151069;23;20082;-88
2023/12/18 11:18:41;;;;;;;3.05;2.75;;;;;;;;;;6150879;23;20509;-88
2023/12/18 11:21:25;;;;;;;2.55;2.35;;;;;;;;;;6152500;23;20335;-89
2023/12/18 11:24:09;;;;;;;5.88;3.20;;;;;;;;;;6151594;23;20344;-89
2023/12/18 11:26:54;;;;;;;3.45;2.67;;;;;;;;;;6150861;23;20082;-88
2023/12/18 11:29:38;;;;;;;3.67;2.25;;;;;;;;;;6151185;23;20094;-89
2023/12/18 11:32:42;;;;;;;3.40;2.70;;;;;;;;;;6151381;23;20017;-89
2023/12/18 11:35:28;;;;;;;3.13;2.78;;;;;;;;;;6150958;23;20348;-89
2023/12/18 11:38:17;;;;;;;2.75;2.55;;;;;;;;;;6150988;23;20352;-88
2023/12/18 11:41:03;;;;;;;3.03;2.72;;;;;;;;;;6150849;23;20415;-89
2023/12/18 11:43:49;;;;;;;2.42;2.22;;;;;;;;;;6152251;23;20040;-90
2023/12/18 11:46:33;;;;;;;2.70;2.15;;;;;;;;;;6152113;23;20021;-88
2023/12/18 11:49:17;;;;;;;2.10;1.90;;;;;;;;;;6152362;23;20048;-90
2023/12/18 11:52:21;;;;;;;2.20;1.83;;;;;;;;;;6152667;23;20016;-89
2023/12/18 11:55:05;;;;;;;2.03;1.90;;;;;;;;;;6152243;23;20070;-88
2023/12/18 11:57:51;;;;;;;2.28;1.90;;;;;;;;;;6152045;23;20040;-90
2023/12/18 12:00:35;;;;;;;2.35;2.15;;;;;;;;;;6152267;23;20474;-89
2023/12/18 12:03:20;;;;;;;1.90;1.80;;;;;;;;;;6152559;23;20067;-89
2023/12/18 12:06:08;;;;;;;2.42;2.22;;;;;;;;;;6193031;22;20088;-90
2023/12/18 12:08:52;;;;;;;2.28;2.17;;;;;;;;;;6287156;22;20068;-90
2023/12/18 12:11:36;;;;;;;3.55;2.05;;;;;;;;;;6286818;22;20084;-88
2023/12/18 12:14:20;;;;;;;2.55;2.35;;;;;;;;;;6287983;22;20030;-87
2023/12/18 12:17:04;;;;;;;2.50;2.30;;;;;;;;;;6286503;22;20037;-90
2023/12/18 12:19:48;;;;;;;2.80;2.60;;;;;;;;;;6286868;22;20022;-90
2023/12/18 12:22:32;;;;;;;2.33;2.17;;;;;;;;;;6286645;22;20018;-89
2023/12/18 12:25:16;;;;;;;5.47;3.13;;;;;;;;;;6286510;22;20475;-88
2023/12/18 12:31:34;;;;;;;2.60;2.40;;;;;;;;;;6310179;22;20042;-91
2023/12/18 12:34:18;;;;;;;2.33;1.95;;;;;;;;;;6286986;22;20093;-89
2023/12/18 12:37:02;;;;;;;2.10;2.00;;;;;;;;;;6286794;22;20077;-89
2023/12/18 12:39:59;;;;;;;1.70;1.60;;;;;;;;;;6287135;22;20021;-88
2023/12/18 12:46:48;;;;;;;1.70;1.60;;;;;;;;;;6310449;22;20133;-89
2023/12/18 12:49:32;;;;;;;1.77;1.67;;;;;;;;;;6286662;22;20453;-90
2023/12/18 12:52:16;;;;;;;1.98;1.77;;;;;;;;;;6286232;22;20014;-88
2023/12/18 12:55:01;;;;;;;1.73;1.60;;;;;;;;;;6286248;22;20083;-90
2023/12/18 12:57:45;;;;;;;1.90;1.80;;;;;;;;;;6286162;22;20201;-89
2023/12/18 13:00:29;;;;;;;1.80;1.70;;;;;;;;;;6286301;22;20019;-87
2023/12/18 13:03:13;;;;;;;2.05;1.85;;;;;;;;;;6286342;22;20065;-90
2023/12/18 13:06:00;;;;;;;1.88;1.77;;;;;;;;;;6286037;22;20077;-87
2023/12/18 13:08:45;;;;;;;1.70;1.60;;;;;;;;;;6285861;22;20350;-88
2023/12/18 13:11:31;;;;;;;1.90;1.80;;;;;;;;;;6286170;22;20022;-89
2023/12/18 13:14:15;;;;;;;1.80;1.70;;;;;;;;;;6286076;22;20019;-90
2023/12/18 13:17:02;;;;;;;2.83;2.63;;;;;;;;;;6286816;22;20064;-88
2023/12/18 13:19:46;;;;;;;1.70;1.60;;;;;;;;;;6286658;22;20022;-89
2023/12/18 13:22:31;;;;;;;1.80;1.70;;;;;;;;;;6283520;22;20072;-84
2023/12/18 13:25:24;;;;;;;1.70;1.60;;;;;;;;;;6282780;22;20021;-85
2023/12/18 13:28:17;;;;;;;1.50;1.40;;;;;;;;;;6282700;22;20468;-85
2023/12/18 13:31:01;;;;;;;1.50;1.40;;;;;;;;;;6282842;22;20224;-85
2023/12/18 13:34:08;;;;;;;1.88;1.50;;;;;;;;;;6305948;22;20080;-84
2023/12/18 13:36:53;;;;;;;1.88;1.77;;;;;;;;;;6282776;22;20017;-85
2023/12/18 13:39:37;;;;;;;2.28;2.08;;;;;;;;;;6283197;22;20034;-84
2023/12/18 13:42:21;;;;;;;3.20;2.90;;;;;;;;;;6282958;22;20021;-86
2023/12/18 13:45:05;;;;;;;3.33;2.55;;;;;;;;;;6282190;22;20022;-85
2023/12/18 13:47:51;;;;;;;2.97;2.67;;;;;;;;;;6282788;22;20072;-84
2023/12/18 13:50:36;;;;;;;2.42;1.90;;;;;;;;;;6305998;22;20507;-87
2023/12/18 13:53:20;;;;;;;1.90;1.77;;;;;;;;;;6282868;22;20513;-85
2023/12/18 13:56:04;;;;;;;2.00;1.80;;;;;;;;;;6282462;22;20022;-85
2023/12/18 13:58:54;;;;;;;1.95;1.75;;;;;;;;;;6282281;22;20017;-87
2023/12/18 14:01:38;;;;;;;3.40;1.63;;;;;;;;;;6281988;22;20314;-86
2023/12/18 14:04:22;;;;;;;2.15;1.83;;;;;;;;;;6282158;22;20022;-87
2023/12/18 14:07:07;;;;;;;2.20;2.10;;;;;;;;;;6187151;22;20528;-86
2023/12/18 14:09:51;;;;;;;1.88;1.77;;;;;;;;;;6148233;23;20044;-84
2023/12/18 14:12:38;;;;;;;1.95;1.85;;;;;;;;;;6148244;23;20063;-86
2023/12/18 14:15:28;;;;;;;2.75;1.52;;;;;;;;;;6148187;23;20020;-84
2023/12/18 14:18:15;;;;;;;1.90;1.80;;;;;;;;;;6148132;23;20548;-86
2023/12/18 14:21:02;;;;;;;3.25;2.40;;;;;;;;;;6148163;23;20020;-85
2023/12/18 14:23:46;;;;;;;1.70;1.60;;;;;;;;;;6148077;23;20024;-87
2023/12/18 14:26:30;;;;;;;2.20;1.67;;;;;;;;;;6147703;23;20024;-86
2023/12/18 14:29:14;;;;;;;2.20;2.00;;;;;;;;;;6149139;23;20020;-85
2023/12/18 14:31:59;;;;;;;1.70;1.60;;;;;;;;;;6148284;23;20067;-84
2023/12/18 14:34:43;;;;;;;1.98;1.77;;;;;;;;;;6148093;23;20020;-85
2023/12/18 14:37:26;;;;;;;1.70;1.60;;;;;;;;;;6147772;23;20056;-86
2023/12/18 14:40:11;;;;;;;1.80;1.70;;;;;;;;;;6149270;23;20025;-87
2023/12/18 14:42:58;;;;;;;1.70;1.60;;;;;;;;;;6147995;23;20040;-85
2023/12/18 14:45:43;;;;;;;2.05;1.92;;;;;;;;;;6147839;23;20113;-85
2023/12/18 14:48:27;;;;;;;2.67;1.95;;;;;;;;;;6149387;23;20068;-85
2023/12/18 14:51:11;;;;;;;1.85;1.75;;;;;;;;;;6147734;23;20017;-84
2023/12/18 14:53:55;;;;;;;1.92;1.80;;;;;;;;;;6149174;23;20021;-84
2023/12/18 14:56:42;;;;;;;1.90;1.80;;;;;;;;;;6147692;23;20020;-85
2023/12/18 14:59:26;;;;;;;2.00;1.80;;;;;;;;;;6148939;23;20508;-89
2023/12/18 15:02:11;;;;;;;2.30;2.10;;;;;;;;;;6147845;23;20063;-85
2023/12/18 15:04:54;;;;;;;2.00;1.90;;;;;;;;;;6147591;23;20024;-85
2023/12/18 15:07:50;;;;;;;1.90;1.80;;;;;;;;;;6272472;22;20102;-86
2023/12/18 15:10:35;;;;;;;1.90;1.80;;;;;;;;;;6281870;22;20069;-85
2023/12/18 15:13:19;;;;;;;1.90;1.80;;;;;;;;;;6305001;22;20138;-85
2023/12/18 15:16:03;;;;;;;3.13;1.67;;;;;;;;;;6282849;22;20066;-84
2023/12/18 15:18:51;;;;;;;2.38;1.73;;;;;;;;;;6284178;22;20030;-85
2023/12/18 15:21:37;;;;;;;2.92;1.80;;;;;;;;;;6283801;22;20033;-84
2023/12/18 15:24:21;;;;;;;1.80;1.70;;;;;;;;;;6306843;22;20341;-84
2023/12/18 15:27:07;;;;;;;2.13;1.92;;;;;;;;;;6283799;22;20069;-86
2023/12/18 15:33:27;;;;;;;6.13;3.10;;;;;;;;;;6306336;22;20078;-86
2023/12/18 15:36:27;;;;;;;4.93;3.50;;;;;;;;;;6283572;22;20349;-88
2023/12/18 15:39:13;;;;;;;3.10;2.90;;;;;;;;;;6287668;22;20022;-89
2023/12/18 15:41:57;;;;;;;2.33;1.90;;;;;;;;;;6287898;22;20400;-88
2023/12/18 15:44:41;;;;;;;1.80;1.70;;;;;;;;;;6287598;22;20386;-89
2023/12/18 15:47:25;;;;;;;1.77;1.67;;;;;;;;;;6286602;22;20098;-87
2023/12/18 15:50:09;;;;;;;3.30;1.90;;;;;;;;;;6288439;22;20053;-89
2023/12/18 15:52:53;;;;;;;3.42;1.70;;;;;;;;;;6286698;22;20467;-87
2023/12/18 15:55:37;;;;;;;1.58;1.45;;;;;;;;;;6286292;22;20013;-88
2023/12/18 15:58:21;;;;;;;1.58;1.48;;;;;;;;;;6286613;22;20092;-89
2023/12/18 16:01:05;;;;;;;1.50;1.40;;;;;;;;;;6287096;22;20022;-87
2023/12/18 16:03:49;;;;;;;1.52;1.42;;;;;;;;;;6288074;22;20030;-89
2023/12/18 16:06:33;;;;;;;1.73;1.63;;;;;;;;;;6235999;22;20067;-88
2023/12/18 16:09:18;;;;;;;1.67;1.58;;;;;;;;;;6153424;23;20380;-88
2023/12/18 16:12:02;;;;;;;2.00;1.90;;;;;;;;;;6154827;23;20016;-89
2023/12/18 16:14:52;;;;;;;2.85;2.42;;;;;;;;;;6156375;23;20020;-89
2023/12/18 16:21:04;;;;;;;2.05;1.95;;;;;;;;;;6156516;23;20016;-89
2023/12/18 16:23:48;;;;;;;4.32;2.60;;;;;;;;;;6154851;23;20090;-90
2023/12/18 16:26:34;;;;;;;10.85;9.77;;;;;;;;;;6157526;23;20024;-89
2023/12/18 16:29:18;;;;;;;6.53;5.05;;;;;;;;;;6152347;23;20537;-88
2023/12/18 16:32:06;;;;;;;29.50;19.75;;;;;;;;;;6151029;23;20340;-90
2023/12/18 16:35:10;;;;;;;4.57;4.03;;;;;;;;;;6151765;23;20112;-89
2023/12/18 16:37:54;;;;;;;31.45;19.95;;;;;;;;;;6151523;23;20078;-88
2023/12/18 16:40:38;;;;;;;18.98;15.88;;;;;;;;;;6151517;23;20028;-87
2023/12/18 16:43:22;;;;;;;6.82;5.40;;;;;;;;;;6151422;23;20116;-88
2023/12/18 16:46:09;;;;;;;6.53;5.25;;;;;;;;;;6151426;23;20090;-89
2023/12/18 16:48:54;;;;;;;5.75;4.35;;;;;;;;;;6151402;23;20098;-88
2023/12/18 16:51:38;;;;;;;4.70;3.42;;;;;;;;;;6151738;23;20078;-89
2023/12/18 17:01:47;;;;;;;6.05;5.53;;;;;;;;;;6155004;23;20024;-88
2023/12/18 17:04:31;;;;;;;4.65;4.18;;;;;;;;;;6152075;23;20052;-89
2023/12/18 17:07:14;;;;;;;5.00;4.45;;;;;;;;;;6151035;23;20020;-88
2023/12/18 17:09:58;;;;;;;7.07;5.80;;;;;;;;;;6151325;23;20340;-89
2023/12/18 17:12:45;;;;;;;4.93;3.78;;;;;;;;;;6151626;23;20382;-89